Time;durP1;ratioP1;P1;durP2;ratioP2;P2;SDS_P1;SDS_P2;PMS_P1;PMS_P2;Temp;Humidity;BMP_temperature;BMP_pressure;BME280_temperature;BME280_humidity;BME280_pressure;Samples;Min_cycle;Max_cycle;Signal;HPM_P1;HPM_P2
2021/05/28 00:00:30;;;;;;;1.55;1.10;;;;;;;2.68;82.88;91171.25;4976116;29;20027;-85
2021/05/28 00:02:56;;;;;;;1.73;1.33;;;;;;;2.75;81.80;91171.69;4960274;29;20555;-85
2021/05/28 00:05:21;;;;;;;3.05;1.10;;;;;;;2.59;81.98;91170.34;4976248;29;20038;-84
2021/05/28 00:07:47;;;;;;;3.17;1.30;;;;;;;2.55;82.95;91169.34;4960229;29;20033;-84
2021/05/28 00:10:12;;;;;;;1.90;1.10;;;;;;;2.49;83.10;91175.59;4959919;29;20027;-83
2021/05/28 00:12:38;;;;;;;2.05;1.10;;;;;;;2.53;81.97;91172.19;4960208;29;20030;-84
2021/05/28 00:15:06;;;;;;;2.50;1.05;;;;;;;2.54;81.00;91178.09;4953016;29;20041;-85
2021/05/28 00:17:31;;;;;;;1.88;1.50;;;;;;;2.36;80.81;91170.03;4933309;29;20487;-85
2021/05/28 00:19:56;;;;;;;1.95;1.30;;;;;;;2.31;82.19;91175.22;4965310;29;20037;-85
2021/05/28 00:22:22;;;;;;;3.10;1.35;;;;;;;2.23;83.75;91173.25;4964735;28;20023;-85
2021/05/28 00:24:47;;;;;;;2.88;1.30;;;;;;;2.24;83.64;91174.78;4965247;29;20028;-84
2021/05/28 00:27:13;;;;;;;4.45;1.40;;;;;;;2.25;83.71;91171.16;4933423;29;20035;-84
2021/05/28 00:29:38;;;;;;;1.95;1.50;;;;;;;2.32;83.82;91181.91;4948937;29;20023;-84
2021/05/28 00:32:04;;;;;;;3.25;1.52;;;;;;;2.32;84.21;91179.31;4965107;29;20034;-85
2021/05/28 00:34:29;;;;;;;1.83;1.38;;;;;;;2.28;84.65;91180.91;4948858;29;20036;-84
2021/05/28 00:36:55;;;;;;;2.22;1.35;;;;;;;2.25;84.50;91171.16;4964424;29;20032;-84
2021/05/28 00:39:20;;;;;;;2.22;1.33;;;;;;;2.22;85.03;91170.94;4964117;29;20024;-85
2021/05/28 00:41:45;;;;;;;2.85;1.50;;;;;;;2.26;85.33;91167.56;4963828;29;20046;-85
2021/05/28 00:44:11;;;;;;;3.45;1.38;;;;;;;2.22;86.29;91161.41;4956252;28;20038;-82
2021/05/28 00:46:37;;;;;;;1.92;1.25;;;;;;;2.27;85.51;91165.75;4951825;29;20042;-84
2021/05/28 00:49:02;;;;;;;5.63;1.40;;;;;;;2.27;84.78;91171.66;4951522;28;20083;-83
2021/05/28 00:51:28;;;;;;;2.67;1.35;;;;;;;2.35;83.63;91167.72;4935055;29;20091;-82
2021/05/28 00:53:53;;;;;;;3.00;1.35;;;;;;;2.21;83.21;91170.16;4951449;28;20028;-83
2021/05/28 00:56:19;;;;;;;1.58;1.13;;;;;;;2.29;82.75;91163.66;4950963;28;20446;-83
2021/05/28 00:58:44;;;;;;;3.70;1.35;;;;;;;2.09;83.67;91162.06;4950947;29;20024;-83
2021/05/28 01:01:10;;;;;;;2.25;1.45;;;;;;;2.07;84.94;91162.31;4950964;29;20027;-82
2021/05/28 01:03:35;;;;;;;2.72;1.27;;;;;;;2.07;85.29;91169.25;4923678;29;20027;-83
2021/05/28 01:06:01;;;;;;;2.78;1.60;;;;;;;2.08;85.37;91157.94;4954124;28;20031;-82
2021/05/28 01:08:26;;;;;;;3.75;1.48;;;;;;;2.06;85.33;91155.66;4938249;29;20023;-84
2021/05/28 01:10:51;;;;;;;2.10;1.33;;;;;;;2.11;85.60;91160.72;4953754;29;20473;-83
2021/05/28 01:13:17;;;;;;;2.17;1.50;;;;;;;2.08;86.23;91156.13;4937887;29;20039;-84
2021/05/28 01:15:42;;;;;;;2.78;1.60;;;;;;;2.14;86.15;91164.56;4954032;28;20027;-84
2021/05/28 01:18:08;;;;;;;1.90;1.50;;;;;;;2.16;86.09;91162.50;4937881;29;20030;-84
2021/05/28 01:20:33;;;;;;;4.50;1.30;;;;;;;2.12;85.93;91162.28;4937700;29;20027;-83
2021/05/28 01:23:00;;;;;;;2.47;1.52;;;;;;;2.09;85.32;91152.53;4921963;29;20508;-82
2021/05/28 01:25:26;;;;;;;2.17;1.15;;;;;;;2.10;84.73;91158.44;4938195;29;20038;-84
2021/05/28 01:27:51;;;;;;;2.97;1.30;;;;;;;2.03;86.25;91156.19;4953664;28;20063;-84
2021/05/28 01:30:17;;;;;;;1.70;1.30;;;;;;;2.02;86.20;91151.31;4937815;29;20083;-84
2021/05/28 01:32:42;;;;;;;2.00;1.30;;;;;;;2.01;85.60;91149.75;4937672;29;20405;-83
2021/05/28 01:35:10;;;;;;;2.58;1.70;;;;;;;2.09;86.15;91149.19;4922115;29;20031;-84
2021/05/28 01:37:35;;;;;;;2.08;1.50;;;;;;;2.08;86.30;91160.50;4953503;29;20457;-84
2021/05/28 01:40:00;;;;;;;2.38;1.50;;;;;;;2.08;86.65;91160.50;4934281;29;20027;-81
2021/05/28 01:42:26;;;;;;;1.85;1.20;;;;;;;2.21;86.26;91161.69;4949951;28;20046;-84
2021/05/28 01:44:53;;;;;;;4.03;1.63;;;;;;;2.04;86.00;91150.00;4934485;29;20371;-84
2021/05/28 01:47:19;;;;;;;5.20;1.48;;;;;;;1.95;85.97;91153.44;4949696;29;20082;-83
2021/05/28 01:49:44;;;;;;;2.78;1.50;;;;;;;2.03;85.53;91147.69;4918413;29;20035;-84
2021/05/28 01:52:09;;;;;;;2.83;1.30;;;;;;;2.00;85.43;91146.44;4934009;29;20039;-84
2021/05/28 01:54:37;;;;;;;2.17;1.38;;;;;;;1.97;85.96;91159.06;4950063;29;20035;-84
2021/05/28 01:57:03;;;;;;;1.77;1.50;;;;;;;2.01;85.73;91150.53;4949587;29;20517;-83
2021/05/28 01:59:28;;;;;;;4.75;1.45;;;;;;;1.99;85.71;91157.00;4949842;29;20565;-83
2021/05/28 02:01:54;;;;;;;2.40;1.35;;;;;;;1.89;85.57;91156.03;4949875;29;20035;-83
2021/05/28 02:04:19;;;;;;;3.03;1.48;;;;;;;1.94;84.98;91154.44;4927947;29;20027;-84
2021/05/28 02:06:45;;;;;;;2.33;1.17;;;;;;;1.90;85.99;91146.50;4953212;29;20427;-84
2021/05/28 02:09:10;;;;;;;2.40;1.40;;;;;;;1.92;85.41;91147.78;4920341;29;20030;-81
2021/05/28 02:11:36;;;;;;;1.77;1.50;;;;;;;1.88;85.19;91151.16;4969094;28;20062;-83
2021/05/28 02:14:01;;;;;;;2.33;1.30;;;;;;;1.85;84.62;91152.47;4964321;23;20074;-86
2021/05/28 02:16:27;;;;;;;2.35;1.30;;;;;;;1.94;82.20;91149.31;4956995;28;20037;-85
2021/05/28 02:18:52;;;;;;;2.10;1.30;;;;;;;1.71;83.63;91146.41;4972508;28;20031;-86
2021/05/28 02:21:17;;;;;;;3.55;1.40;;;;;;;1.64;84.77;91138.22;4972352;28;20034;-85
2021/05/28 02:23:43;;;;;;;1.50;1.30;;;;;;;1.61;84.95;91141.34;4931300;28;20497;-85
2021/05/28 02:26:08;;;;;;;2.75;1.30;;;;;;;1.67;85.40;91147.97;4940354;28;20027;-86
2021/05/28 02:28:34;;;;;;;3.05;1.38;;;;;;;1.67;85.21;91150.53;4956282;28;20060;-86
2021/05/28 02:30:59;;;;;;;2.97;1.48;;;;;;;1.64;84.48;91143.38;4955478;28;20503;-87
2021/05/28 02:33:24;;;;;;;1.73;1.13;;;;;;;1.55;84.22;91142.38;4955603;28;20034;-85
2021/05/28 02:35:50;;;;;;;1.05;0.95;;;;;;;1.54;83.30;91141.63;4940105;28;20077;-86
2021/05/28 02:38:15;;;;;;;1.58;1.30;;;;;;;1.48;83.09;91132.41;4956277;28;20500;-87
2021/05/28 02:40:40;;;;;;;1.65;1.15;;;;;;;1.51;81.84;91136.25;4939803;28;20031;-85
2021/05/28 02:43:06;;;;;;;2.08;1.45;;;;;;;1.52;81.70;91140.34;4940088;28;20027;-86
2021/05/28 02:45:31;;;;;;;2.13;1.35;;;;;;;1.24;81.32;91141.81;4939992;28;20085;-86
2021/05/28 02:47:59;;;;;;;1.60;1.30;;;;;;;1.20;84.18;91154.41;4955986;28;20543;-86
2021/05/28 02:50:26;;;;;;;2.17;1.27;;;;;;;1.22;84.91;91139.50;4940904;28;20034;-85
2021/05/28 02:52:51;;;;;;;1.70;1.30;;;;;;;1.28;84.46;91145.41;4939916;28;20401;-85
2021/05/28 02:55:16;;;;;;;5.30;1.73;;;;;;;1.07;85.24;91147.31;4940140;28;20038;-86
2021/05/28 02:57:42;;;;;;;1.63;1.20;;;;;;;1.09;84.97;91145.22;4939812;28;20023;-86
2021/05/28 03:00:08;;;;;;;2.13;1.40;;;;;;;1.10;84.75;91144.97;4956075;28;20038;-85
2021/05/28 03:02:33;;;;;;;1.83;1.40;;;;;;;1.15;83.60;91154.44;4956051;28;20038;-86
2021/05/28 03:04:59;;;;;;;2.17;1.40;;;;;;;1.17;84.99;91137.75;4936717;29;20054;-86
2021/05/28 03:07:24;;;;;;;1.60;1.30;;;;;;;1.23;85.03;91135.13;4952745;29;20035;-86
2021/05/28 03:09:49;;;;;;;1.60;1.35;;;;;;;1.23;83.02;91145.41;4921022;29;20085;-86
2021/05/28 03:12:15;;;;;;;2.92;1.25;;;;;;;1.09;83.93;91145.22;4920679;29;20050;-85
2021/05/28 03:14:40;;;;;;;2.25;1.40;;;;;;;1.05;86.37;91144.22;4936709;29;20031;-85
2021/05/28 03:17:06;;;;;;;2.13;1.38;;;;;;;1.16;86.46;91148.25;4926273;29;20100;-86
2021/05/28 03:19:42;;;;;;;7.30;1.67;;;;;;;1.19;86.63;91140.03;4936926;28;20397;-86
2021/05/28 03:24:54;;;;;;;1.40;1.13;;;;;;;1.34;85.99;91142.53;4957199;29;20453;-86
2021/05/28 03:27:19;;;;;;;1.98;1.30;;;;;;;1.20;85.44;91136.44;4956474;28;20039;-86
2021/05/28 03:29:45;;;;;;;3.33;1.50;;;;;;;1.16;85.45;91132.88;4956676;29;20077;-85
2021/05/28 03:32:10;;;;;;;2.80;1.35;;;;;;;1.15;86.85;91134.66;4956285;29;20070;-86
2021/05/28 03:34:36;;;;;;;1.90;1.48;;;;;;;1.14;86.48;91127.25;4940568;29;20035;-86
2021/05/28 03:37:01;;;;;;;4.55;1.30;;;;;;;1.15;85.96;91123.63;4956333;29;20511;-86
2021/05/28 03:39:26;;;;;;;2.63;1.50;;;;;;;1.13;86.69;91125.69;4956241;29;20034;-86
2021/05/28 03:41:52;;;;;;;1.55;1.35;;;;;;;1.14;86.97;91125.44;4956067;29;20030;-86
2021/05/28 03:44:17;;;;;;;2.58;1.27;;;;;;;1.19;86.19;91114.38;4940510;29;20508;-86
2021/05/28 03:46:43;;;;;;;2.15;1.35;;;;;;;1.24;85.71;91123.81;4956384;28;20079;-86
2021/05/28 03:49:08;;;;;;;1.60;1.50;;;;;;;1.25;85.38;91118.44;4956419;29;20494;-86
2021/05/28 03:51:33;;;;;;;2.30;1.35;;;;;;;1.21;86.13;91109.75;4940207;29;20039;-86
2021/05/28 03:53:59;;;;;;;2.55;1.40;;;;;;;1.25;86.27;91115.13;4940188;29;20043;-87
2021/05/28 03:56:24;;;;;;;2.78;1.65;;;;;;;1.35;85.61;91108.13;4956351;29;20035;-85
2021/05/28 03:58:50;;;;;;;1.38;1.20;;;;;;;1.28;84.54;91110.22;4956479;29;20042;-86
2021/05/28 04:01:15;;;;;;;9.95;4.88;;;;;;;1.26;84.55;91112.28;4955949;29;20449;-86
2021/05/28 04:03:40;;;;;;;5.68;3.22;;;;;;;1.18;86.58;91103.34;4956432;29;20023;-85
2021/05/28 04:06:06;;;;;;;3.83;1.63;;;;;;;1.32;84.86;91113.78;4940329;29;20038;-85
2021/05/28 04:08:31;;;;;;;1.55;1.40;;;;;;;1.21;84.30;91114.88;4925273;29;20496;-87
2021/05/28 04:10:57;;;;;;;3.92;1.50;;;;;;;1.24;85.84;91111.00;4924753;29;20031;-86
2021/05/28 04:13:28;;;;;;;4.57;1.85;;;;;;;1.25;87.04;91110.75;4924322;29;20061;-86
2021/05/28 04:15:54;;;;;;;3.80;1.75;;;;;;;1.27;87.42;91111.22;4924866;29;20032;-86
2021/05/28 04:18:19;;;;;;;3.13;1.77;;;;;;;1.35;86.70;91110.69;4940538;29;20039;-87
2021/05/28 04:20:45;;;;;;;2.75;2.00;;;;;;;1.42;84.99;91102.69;4924351;29;20219;-87
2021/05/28 04:23:11;;;;;;;1.67;1.50;;;;;;;1.32;83.70;91098.38;4939560;28;20027;-86
2021/05/28 04:25:36;;;;;;;2.25;1.60;;;;;;;1.41;83.54;91106.25;4944072;28;20473;-85
2021/05/28 04:28:01;;;;;;;2.60;1.45;;;;;;;1.42;84.31;91103.44;4923953;29;20027;-86
2021/05/28 04:30:27;;;;;;;3.63;1.40;;;;;;;1.61;82.69;91110.50;4924281;29;20027;-85
2021/05/28 04:32:56;;;;;;;3.63;1.70;;;;;;;1.49;82.44;91108.28;4923637;29;20074;-86
2021/05/28 04:35:22;;;;;;;3.55;2.13;;;;;;;1.50;85.96;91109.03;4940875;29;20041;-88
2021/05/28 04:37:47;;;;;;;2.45;1.90;;;;;;;1.65;87.73;91107.13;4940520;29;20031;-86
2021/05/28 04:40:13;;;;;;;5.53;2.20;;;;;;;1.87;86.98;91114.41;4939880;29;20035;-87
2021/05/28 04:42:39;;;;;;;2.95;1.90;;;;;;;2.00;86.71;91122.53;4924403;29;20127;-86
2021/05/28 04:45:05;;;;;;;3.03;2.00;;;;;;;2.05;86.55;91110.41;4939914;29;20027;-87
2021/05/28 04:47:32;;;;;;;1.98;1.65;;;;;;;2.12;86.78;91118.56;4923992;29;20034;-87
2021/05/28 04:49:57;;;;;;;2.95;1.55;;;;;;;2.20;86.78;91119.78;4924906;29;20058;-87
2021/05/28 04:52:23;;;;;;;3.17;2.03;;;;;;;2.29;87.26;91115.56;4923925;29;20039;-87
2021/05/28 04:54:54;;;;;;;3.00;1.70;;;;;;;2.35;86.42;91109.34;4923875;29;20027;-87
2021/05/28 04:57:20;;;;;;;2.25;1.50;;;;;;;2.43;85.02;91107.22;4924317;29;20031;-87
2021/05/28 04:59:46;;;;;;;2.40;1.70;;;;;;;2.54;84.82;91113.78;4924456;29;20042;-86
2021/05/28 05:02:11;;;;;;;2.67;1.70;;;;;;;2.74;84.73;91105.06;4923992;29;20028;-86
2021/05/28 05:04:36;;;;;;;1.92;1.58;;;;;;;2.80;84.22;91112.47;4939770;29;20074;-87
2021/05/28 05:07:02;;;;;;;1.88;1.52;;;;;;;2.92;84.10;91116.44;4939904;29;20062;-86
2021/05/28 05:09:27;;;;;;;2.67;1.60;;;;;;;2.86;85.00;91108.78;4925250;29;20027;-87
2021/05/28 05:11:53;;;;;;;1.60;1.40;;;;;;;2.98;84.91;91121.25;4941250;28;20040;-92
2021/05/28 05:14:19;;;;;;;2.95;1.80;;;;;;;3.08;85.26;91115.22;4964475;28;20084;-89
2021/05/28 05:16:44;;;;;;;1.80;1.30;;;;;;;3.14;85.44;91121.81;4937631;29;20043;-85
2021/05/28 05:19:10;;;;;;;2.78;1.67;;;;;;;3.18;86.16;91122.81;4924199;29;20027;-86
2021/05/28 05:21:35;;;;;;;4.90;1.75;;;;;;;3.25;86.15;91112.94;4923526;29;20031;-87
2021/05/28 05:24:00;;;;;;;4.00;1.80;;;;;;;3.46;85.08;91120.38;4939015;29;20031;-88
2021/05/28 05:26:26;;;;;;;5.82;1.83;;;;;;;3.40;85.35;91113.78;4923293;29;20047;-87
2021/05/28 05:28:52;;;;;;;2.17;1.65;;;;;;;3.44;85.28;91125.81;4949881;28;20019;-93
2021/05/28 05:31:17;;;;;;;4.32;1.60;;;;;;;3.49;85.45;91124.97;4933909;29;20023;-87
2021/05/28 05:33:43;;;;;;;2.72;1.77;;;;;;;3.69;84.98;91136.81;4923875;29;20027;-85
2021/05/28 05:36:08;;;;;;;2.30;1.80;;;;;;;3.80;84.99;91131.22;4923657;29;20478;-87
2021/05/28 05:38:34;;;;;;;3.58;1.80;;;;;;;4.06;84.76;91128.25;4923216;29;20019;-87
2021/05/28 05:40:59;;;;;;;4.45;1.83;;;;;;;4.23;84.36;91132.88;4938701;29;20086;-87
2021/05/28 05:43:25;;;;;;;2.92;2.10;;;;;;;4.29;84.37;91137.66;4923275;29;20400;-87
2021/05/28 05:45:50;;;;;;;2.70;1.90;;;;;;;4.30;84.16;91123.72;4938633;29;20662;-87
2021/05/28 05:48:16;;;;;;;6.60;2.10;;;;;;;4.45;84.68;91127.88;4923258;29;20028;-87
2021/05/28 05:50:41;;;;;;;4.80;2.00;;;;;;;4.65;85.54;91147.38;4922749;29;20090;-86
2021/05/28 05:53:06;;;;;;;2.80;2.13;;;;;;;4.70;84.60;91147.31;4922432;29;20023;-87
2021/05/28 05:55:32;;;;;;;3.33;1.98;;;;;;;4.86;84.85;91154.75;4938371;29;20497;-87
2021/05/28 05:57:57;;;;;;;4.05;2.20;;;;;;;4.93;84.98;91142.22;4922741;29;20020;-87
2021/05/28 06:00:23;;;;;;;4.18;2.00;;;;;;;5.09;85.33;91142.69;4922085;29;20052;-87
2021/05/28 06:02:48;;;;;;;6.95;2.20;;;;;;;5.32;85.45;91146.88;4921956;29;20083;-87
2021/05/28 06:05:14;;;;;;;4.25;2.13;;;;;;;5.43;85.35;91155.94;4938036;29;20023;-87
2021/05/28 06:07:42;;;;;;;4.13;2.15;;;;;;;5.62;85.26;91158.41;4921230;29;20078;-88
2021/05/28 06:10:09;;;;;;;2.72;2.30;;;;;;;5.87;84.62;91164.09;4923666;29;20062;-87
2021/05/28 06:12:34;;;;;;;5.95;3.20;;;;;;;5.95;83.72;91159.00;4937523;29;20106;-86
2021/05/28 06:14:59;;;;;;;6.57;3.53;;;;;;;6.13;81.26;91165.06;4938225;29;20031;-88
2021/05/28 06:17:25;;;;;;;4.88;2.83;;;;;;;6.33;79.18;91173.44;4921931;29;20027;-87
2021/05/28 06:19:51;;;;;;;4.72;2.30;;;;;;;6.60;78.69;91173.28;4937417;29;20023;-86
2021/05/28 06:22:21;;;;;;;2.85;2.17;;;;;;;6.79;80.22;91160.13;4936506;29;20485;-87
2021/05/28 06:24:50;;;;;;;5.30;2.20;;;;;;;7.05;79.13;91167.22;4922388;29;20043;-86
2021/05/28 06:27:18;;;;;;;3.00;2.10;;;;;;;7.18;78.88;91172.31;4938036;29;20031;-87
2021/05/28 06:29:44;;;;;;;2.90;1.75;;;;;;;7.30;77.20;91168.38;4937597;29;20024;-87
2021/05/28 06:32:09;;;;;;;2.50;1.73;;;;;;;7.38;75.64;91175.41;4921307;29;20042;-87
2021/05/28 06:34:35;;;;;;;3.50;1.75;;;;;;;7.55;72.73;91167.66;4937689;29;20027;-87
2021/05/28 06:37:01;;;;;;;2.13;1.77;;;;;;;7.58;73.32;91169.66;4921997;29;20428;-87
2021/05/28 06:39:27;;;;;;;2.15;1.60;;;;;;;7.70;73.65;91160.50;4940894;28;20027;-87
2021/05/28 06:41:52;;;;;;;4.82;2.40;;;;;;;7.84;69.90;91161.13;4957231;28;20019;-88
2021/05/28 06:44:23;;;;;;;2.95;2.25;;;;;;;7.99;73.47;91155.50;4957125;28;20018;-88
2021/05/28 06:46:49;;;;;;;2.55;1.75;;;;;;;8.21;71.63;91164.97;4942412;28;20484;-87
2021/05/28 06:49:14;;;;;;;4.38;1.60;;;;;;;8.32;68.49;91155.03;4958322;28;20102;-88
2021/05/28 06:51:40;;;;;;;3.60;1.85;;;;;;;8.46;66.07;91152.28;4941353;28;20029;-86
2021/05/28 06:54:05;;;;;;;3.38;2.13;;;;;;;8.65;67.31;91162.31;4956642;28;20030;-85
2021/05/28 06:56:32;;;;;;;3.83;1.80;;;;;;;8.83;65.11;91164.59;4956922;28;20502;-89
2021/05/28 06:58:58;;;;;;;2.10;1.75;;;;;;;8.91;67.71;91155.22;4940530;28;20078;-87
2021/05/28 07:01:23;;;;;;;2.20;1.60;;;;;;;9.01;65.70;91149.69;4955602;28;20047;-87
2021/05/28 07:03:49;;;;;;;1.90;1.55;;;;;;;9.05;60.83;91153.19;4971816;28;20374;-87
2021/05/28 07:06:14;;;;;;;2.35;1.45;;;;;;;9.13;64.63;91161.28;4956002;28;20027;-87
2021/05/28 07:08:40;;;;;;;2.25;1.80;;;;;;;9.09;64.25;91155.94;4939408;28;20031;-87
2021/05/28 07:11:07;;;;;;;4.05;1.63;;;;;;;9.29;63.78;91157.03;4955443;28;20123;-86
2021/05/28 07:13:32;;;;;;;3.15;1.60;;;;;;;9.27;59.29;91156.63;4971324;28;20054;-88
2021/05/28 07:15:58;;;;;;;2.95;1.50;;;;;;;9.26;59.59;91161.06;4939626;28;20031;-87
2021/05/28 07:18:23;;;;;;;2.80;1.60;;;;;;;9.47;62.92;91163.72;4939868;28;20027;-87
2021/05/28 07:20:49;;;;;;;3.25;1.60;;;;;;;9.55;57.58;91168.09;4955366;28;20027;-87
2021/05/28 07:23:19;;;;;;;1.77;1.40;;;;;;;9.69;57.05;91161.91;4939355;28;20027;-87
2021/05/28 07:25:45;;;;;;;2.20;1.35;;;;;;;9.80;56.02;91161.22;4956135;28;20118;-87
2021/05/28 07:28:10;;;;;;;2.38;1.35;;;;;;;9.96;56.89;91161.38;4939796;28;20089;-86
2021/05/28 07:30:36;;;;;;;2.85;1.45;;;;;;;9.86;56.81;91151.38;4937687;28;20438;-87
2021/05/28 07:33:01;;;;;;;4.22;1.58;;;;;;;10.09;55.08;91151.06;4955035;28;20029;-87
2021/05/28 07:35:26;;;;;;;2.22;1.13;;;;;;;10.22;56.72;91155.25;4955282;28;20031;-87
2021/05/28 07:37:52;;;;;;;2.20;1.58;;;;;;;10.30;55.05;91162.25;4955249;28;20023;-87
2021/05/28 07:40:17;;;;;;;2.65;1.30;;;;;;;10.29;54.30;91158.13;4940181;29;20054;-87
2021/05/28 07:42:43;;;;;;;2.28;1.50;;;;;;;10.26;54.37;91156.91;4952012;29;20039;-87
2021/05/28 07:45:09;;;;;;;2.08;1.30;;;;;;;10.39;57.53;91157.72;4936022;29;20116;-86
2021/05/28 07:47:34;;;;;;;1.60;1.25;;;;;;;10.41;54.80;91155.56;4927379;28;20067;-86
2021/05/28 07:50:02;;;;;;;1.50;1.20;;;;;;;10.51;53.42;91155.16;4964423;28;20030;-88
2021/05/28 07:52:28;;;;;;;2.20;1.35;;;;;;;10.65;54.41;91156.72;4939378;28;20023;-86
2021/05/28 07:54:53;;;;;;;1.85;1.20;;;;;;;10.84;52.70;91151.75;4935244;28;20039;-87
2021/05/28 07:57:18;;;;;;;1.67;1.08;;;;;;;11.00;53.87;91157.88;4950340;29;20070;-86
2021/05/28 07:59:44;;;;;;;1.20;0.90;;;;;;;11.01;51.62;91148.97;4943692;28;20026;-86
2021/05/28 08:02:09;;;;;;;1.17;1.08;;;;;;;11.00;49.68;91149.31;4938788;28;20038;-87
2021/05/28 08:04:35;;;;;;;2.30;1.20;;;;;;;10.95;51.24;91152.09;4936319;28;20074;-87
2021/05/28 08:07:00;;;;;;;3.85;1.40;;;;;;;10.79;49.31;91149.38;4955748;28;20030;-86
2021/05/28 08:09:29;;;;;;;1.80;1.40;;;;;;;10.61;49.75;91153.25;4942385;28;20038;-87
2021/05/28 08:11:54;;;;;;;3.03;1.40;;;;;;;10.79;49.74;91165.00;4959066;28;20030;-85
2021/05/28 08:14:19;;;;;;;2.80;1.30;;;;;;;10.92;51.93;91160.59;4953773;23;20051;-84
2021/05/28 08:16:45;;;;;;;2.42;1.33;;;;;;;11.10;50.44;91161.16;4938267;29;20027;-85
2021/05/28 08:19:10;;;;;;;3.30;1.75;;;;;;;11.16;48.28;91158.00;4923329;29;20035;-84
2021/05/28 08:21:36;;;;;;;2.70;1.30;;;;;;;11.17;47.38;91164.00;4936640;29;20031;-86
2021/05/28 08:24:01;;;;;;;2.92;1.48;;;;;;;11.17;50.14;91164.75;4911510;29;20024;-85
2021/05/28 08:26:27;;;;;;;2.60;1.40;;;;;;;11.28;48.58;91170.31;4920524;29;20028;-85
2021/05/28 08:28:52;;;;;;;2.15;1.30;;;;;;;11.11;49.71;91163.44;4904088;29;20027;-85
2021/05/28 08:31:17;;;;;;;2.00;1.35;;;;;;;11.08;50.44;91160.72;4935332;29;20516;-85
2021/05/28 08:33:45;;;;;;;1.80;1.40;;;;;;;11.38;51.64;91166.50;4935671;29;20441;-86
2021/05/28 08:36:10;;;;;;;2.33;1.20;;;;;;;11.42;49.20;91165.53;4934792;29;20111;-85
2021/05/28 08:38:36;;;;;;;1.70;1.05;;;;;;;11.53;49.14;91162.47;4935437;29;20023;-85
2021/05/28 08:41:01;;;;;;;1.33;1.05;;;;;;;11.67;51.79;91155.06;4934464;29;20112;-84
2021/05/28 08:43:27;;;;;;;1.80;1.17;;;;;;;12.00;52.65;91157.53;4934775;29;20020;-86
2021/05/28 08:45:52;;;;;;;4.10;1.10;;;;;;;12.15;50.20;91158.69;4934878;29;20421;-86
2021/05/28 08:48:18;;;;;;;3.75;1.40;;;;;;;12.29;48.55;91148.66;4934843;29;20034;-85
2021/05/28 08:50:45;;;;;;;2.17;1.23;;;;;;;12.47;48.14;91143.13;4935125;29;20470;-86
2021/05/28 08:53:11;;;;;;;2.65;1.10;;;;;;;12.43;50.55;91148.28;4935953;29;20027;-84
2021/05/28 08:55:38;;;;;;;1.92;1.08;;;;;;;12.59;50.48;91143.09;4938760;29;20409;-85
2021/05/28 08:58:09;;;;;;;1.13;0.90;;;;;;;12.54;51.21;91140.72;4937721;29;20023;-84
2021/05/28 09:00:34;;;;;;;5.20;1.10;;;;;;;12.58;48.21;91124.03;4922357;29;20039;-85
2021/05/28 09:03:36;;;;;;;1.40;0.95;;;;;;;12.71;49.66;91131.81;4921923;29;20036;-84
2021/05/28 09:06:03;;;;;;;1.55;1.10;;;;;;;12.50;47.95;91126.78;4879666;29;20039;-85
2021/05/28 09:08:29;;;;;;;1.70;1.00;;;;;;;12.72;50.74;91134.09;4935338;29;20058;-85
2021/05/28 09:11:17;;;;;;;2.78;1.02;;;;;;;12.97;49.80;91133.94;4947098;29;20083;-85
2021/05/28 09:13:43;;;;;;;1.38;1.00;;;;;;;13.16;48.96;91129.56;4934969;29;20036;-85
2021/05/28 09:16:19;;;;;;;3.45;1.10;;;;;;;13.20;45.90;91136.75;4932081;29;20038;-85
2021/05/28 09:18:47;;;;;;;1.60;1.00;;;;;;;12.61;45.77;91128.56;4918231;29;20028;-85
2021/05/28 09:21:19;;;;;;;2.92;1.00;;;;;;;12.94;47.10;91129.41;4949158;29;20036;-85
2021/05/28 09:23:44;;;;;;;1.42;0.90;;;;;;;13.18;46.66;91136.31;4919483;29;20024;-85
2021/05/28 09:26:09;;;;;;;2.28;1.10;;;;;;;13.11;45.46;91136.94;4902411;29;20052;-85
2021/05/28 09:28:46;;;;;;;1.23;1.02;;;;;;;13.33;46.19;91132.97;4917665;29;20440;-85
2021/05/28 09:31:19;;;;;;;1.38;1.00;;;;;;;13.26;45.82;91130.19;4915406;29;20036;-83
2021/05/28 09:33:52;;;;;;;1.52;1.00;;;;;;;13.52;45.92;91133.03;4915266;29;20031;-84
2021/05/28 09:36:18;;;;;;;1.70;1.17;;;;;;;13.65;49.67;91136.31;4915459;29;20523;-85
2021/05/28 09:38:56;;;;;;;2.47;1.00;;;;;;;13.90;45.27;91128.25;4930769;29;20415;-84
2021/05/28 09:42:00;;;;;;;1.50;1.00;;;;;;;13.87;45.66;91127.06;4915829;29;20032;-85
2021/05/28 09:44:27;;;;;;;2.72;1.20;;;;;;;14.07;47.26;91130.47;4900869;29;20035;-86
2021/05/28 09:47:18;;;;;;;1.63;1.10;;;;;;;14.07;42.14;91122.63;4915465;29;20032;-85
2021/05/28 09:49:47;;;;;;;2.25;1.00;;;;;;;14.04;43.82;91121.44;4916844;29;20100;-85
2021/05/28 09:52:20;;;;;;;1.85;1.30;;;;;;;14.06;44.07;91127.09;4931510;29;20447;-85
2021/05/28 09:55:05;;;;;;;4.00;1.30;;;;;;;14.31;47.79;91117.09;4923838;29;20028;-85
2021/05/28 09:57:31;;;;;;;2.85;1.17;;;;;;;14.37;44.29;91109.72;4933581;29;20020;-85
2021/05/28 09:59:57;;;;;;;2.50;1.10;;;;;;;14.36;43.17;91123.94;4933336;29;20031;-85
2021/05/28 10:02:30;;;;;;;1.73;1.10;;;;;;;14.25;43.36;91121.09;4917435;29;20087;-85
2021/05/28 10:04:57;;;;;;;2.13;0.90;;;;;;;14.49;47.32;91112.19;4934181;29;20387;-85
2021/05/28 10:07:24;;;;;;;1.83;0.82;;;;;;;14.75;48.66;91121.31;4933558;29;20023;-85
2021/05/28 10:09:50;;;;;;;2.70;1.20;;;;;;;14.91;46.63;91116.72;4933199;29;20078;-85
2021/05/28 10:12:16;;;;;;;1.38;0.90;;;;;;;14.87;45.85;91118.50;4933438;29;20127;-85
2021/05/28 10:14:41;;;;;;;1.10;1.00;;;;;;;14.93;45.78;91119.00;4933106;29;20031;-84
2021/05/28 10:17:07;;;;;;;2.08;1.20;;;;;;;14.78;42.36;91115.38;4933428;29;20802;-85
2021/05/28 10:19:35;;;;;;;1.88;0.93;;;;;;;14.46;44.28;91114.75;4933772;29;20482;-85
2021/05/28 10:22:02;;;;;;;1.67;1.10;;;;;;;14.73;42.15;91116.38;4922876;29;20038;-85
2021/05/28 10:24:27;;;;;;;2.15;0.80;;;;;;;15.03;43.10;91115.78;4936435;29;20051;-85
2021/05/28 10:26:53;;;;;;;2.58;1.00;;;;;;;15.02;39.22;91111.66;4934601;29;20035;-85
2021/05/28 10:29:28;;;;;;;1.50;0.93;;;;;;;15.00;44.10;91114.63;4917748;29;20405;-85
2021/05/28 10:31:55;;;;;;;1.42;1.00;;;;;;;15.04;40.67;91112.06;4934580;29;20075;-86
2021/05/28 10:34:21;;;;;;;1.30;0.85;;;;;;;14.83;40.72;91115.81;4918855;29;20139;-85
2021/05/28 10:36:47;;;;;;;2.13;0.93;;;;;;;15.02;41.82;91114.28;4934323;29;20031;-85
2021/05/28 10:39:13;;;;;;;2.13;0.80;;;;;;;15.16;43.46;91108.47;4933171;29;20067;-85
2021/05/28 10:41:44;;;;;;;1.20;0.90;;;;;;;14.90;41.21;91115.19;4933434;29;20083;-85
2021/05/28 10:44:12;;;;;;;1.08;0.70;;;;;;;15.03;40.65;91111.28;4932435;29;20030;-84
2021/05/28 10:46:51;;;;;;;2.95;0.82;;;;;;;15.22;42.06;91113.09;4933622;29;20509;-86
2021/05/28 10:49:16;;;;;;;1.45;0.77;;;;;;;15.49;42.73;91105.25;4932924;29;20055;-85
2021/05/28 10:51:42;;;;;;;1.10;0.80;;;;;;;15.61;41.81;91112.19;4932965;29;20039;-84
2021/05/28 10:54:07;;;;;;;1.85;0.90;;;;;;;15.30;40.38;91100.84;4935095;29;20034;-85
2021/05/28 10:56:35;;;;;;;1.83;1.05;;;;;;;15.17;40.15;91110.78;4948580;29;20032;-85
2021/05/28 10:59:02;;;;;;;2.33;1.05;;;;;;;15.11;40.41;91106.91;4948885;29;20478;-84
2021/05/28 11:01:47;;;;;;;2.25;0.93;;;;;;;15.19;40.20;91103.28;4916748;29;20031;-85
2021/05/28 11:04:21;;;;;;;0.90;0.77;;;;;;;15.19;38.48;91111.16;4914203;29;20035;-85
2021/05/28 11:06:55;;;;;;;1.33;0.90;;;;;;;14.95;40.18;91109.66;4914520;29;20028;-84
2021/05/28 11:09:40;;;;;;;1.38;0.73;;;;;;;15.35;40.25;91105.03;4914070;29;20024;-85
2021/05/28 11:12:08;;;;;;;1.35;0.88;;;;;;;15.85;45.94;91100.53;4913459;29;20116;-85
2021/05/28 11:14:38;;;;;;;2.08;0.90;;;;;;;16.21;45.04;91102.50;4914291;29;20032;-85
2021/05/28 11:17:03;;;;;;;1.58;0.77;;;;;;;16.46;43.13;91102.03;4913911;29;20051;-85
2021/05/28 11:19:34;;;;;;;2.42;1.02;;;;;;;16.39;40.15;91101.94;4913323;29;20122;-85
2021/05/28 11:22:01;;;;;;;1.40;0.73;;;;;;;16.42;39.86;91090.72;4913148;29;20039;-85
2021/05/28 11:24:45;;;;;;;2.03;0.80;;;;;;;16.60;38.39;91091.66;4897911;29;20028;-86
2021/05/28 11:27:19;;;;;;;2.00;0.90;;;;;;;16.16;40.00;91092.31;4914604;29;20024;-85
2021/05/28 11:29:45;;;;;;;2.65;0.98;;;;;;;16.62;44.24;91092.06;4913061;29;20144;-85
2021/05/28 11:32:30;;;;;;;2.38;1.10;;;;;;;16.37;41.52;91088.41;4897385;29;20032;-84
2021/05/28 11:35:18;;;;;;;2.38;1.15;;;;;;;16.47;43.88;91093.03;4913090;29;20024;-85
2021/05/28 11:37:59;;;;;;;3.20;1.13;;;;;;;16.30;44.55;91094.34;4913309;29;20099;-85
2021/05/28 11:40:25;;;;;;;1.65;1.20;;;;;;;16.08;45.39;91098.59;4914375;29;20024;-85